Time;durP1;ratioP1;P1;durP2;ratioP2;P2;SDS_P1;SDS_P2;PMS_P1;PMS_P2;Temp;Humidity;BMP_temperature;BMP_pressure;BME280_temperature;BME280_humidity;BME280_pressure;Samples;Min_cycle;Max_cycle;Signal;HPM_P1;HPM_P2
2021/11/18 00:00:33;;;;;;;6.50;5.40;;;;;;;7.18;77.21;96650.78;5015577;28;20203;-83
2021/11/18 00:02:59;;;;;;;6.10;5.50;;;;;;;7.16;77.55;96647.53;5005655;28;20199;-84
2021/11/18 00:05:28;;;;;;;6.80;5.60;;;;;;;7.19;77.19;96646.44;5015271;28;20231;-84
2021/11/18 00:07:55;;;;;;;6.00;5.40;;;;;;;7.15;77.39;96640.78;5015173;28;20195;-84
2021/11/18 00:10:25;;;;;;;6.67;5.97;;;;;;;7.12;77.32;96635.91;5015877;28;20230;-83
2021/11/18 00:12:52;;;;;;;6.77;6.03;;;;;;;7.16;77.48;96644.97;5015178;28;20253;-84
2021/11/18 00:15:19;;;;;;;6.27;5.67;;;;;;;7.16;77.44;96646.72;5015697;28;20245;-84
2021/11/18 00:17:45;;;;;;;6.07;5.47;;;;;;;7.18;77.11;96640.53;5015936;28;20202;-84
2021/11/18 00:20:15;;;;;;;7.90;5.73;;;;;;;7.15;77.07;96637.41;5014511;28;20194;-84
2021/11/18 00:22:44;;;;;;;6.23;5.63;;;;;;;7.21;77.06;96645.38;5015097;28;20237;-83
2021/11/18 00:25:12;;;;;;;6.73;6.03;;;;;;;7.23;76.80;96643.50;5015431;28;20234;-84
2021/11/18 00:27:38;;;;;;;9.17;5.40;;;;;;;7.27;76.92;96639.75;5014954;28;20199;-83
2021/11/18 00:30:08;;;;;;;6.07;5.47;;;;;;;7.26;76.80;96643.25;5015479;28;20207;-84
2021/11/18 00:32:35;;;;;;;8.57;6.47;;;;;;;7.24;76.54;96637.44;5015460;28;20222;-84
2021/11/18 00:35:03;;;;;;;5.90;5.23;;;;;;;7.21;76.87;96644.59;5015161;28;20234;-84
2021/11/18 00:37:29;;;;;;;6.53;5.90;;;;;;;7.21;76.61;96647.13;5015426;28;20202;-84
2021/11/18 00:39:57;;;;;;;7.00;5.57;;;;;;;7.24;76.79;96645.13;5015508;28;20207;-84
2021/11/18 00:42:23;;;;;;;6.03;5.43;;;;;;;7.25;76.46;96633.94;5015686;28;20233;-84
2021/11/18 00:44:52;;;;;;;6.20;5.63;;;;;;;7.29;76.32;96639.63;5015129;28;20194;-84
2021/11/18 00:47:18;;;;;;;6.50;5.90;;;;;;;7.30;76.37;96638.69;5006329;28;20203;-84
2021/11/18 00:49:45;;;;;;;6.07;5.53;;;;;;;7.31;76.61;96647.19;5014418;28;20199;-83
2021/11/18 00:52:11;;;;;;;6.47;5.87;;;;;;;7.33;76.30;96653.78;5014007;28;20223;-84
2021/11/18 00:54:38;;;;;;;6.07;5.47;;;;;;;7.31;77.02;96650.56;5014142;28;20202;-85
2021/11/18 00:57:06;;;;;;;6.30;5.70;;;;;;;7.34;77.02;96652.03;5015215;28;20203;-84
2021/11/18 00:59:32;;;;;;;6.13;5.63;;;;;;;7.37;76.50;96656.91;5014978;28;20762;-84
2021/11/18 01:01:59;;;;;;;6.70;6.00;;;;;;;7.38;76.42;96655.97;5014997;28;20195;-84
2021/11/18 01:04:27;;;;;;;6.00;5.40;;;;;;;7.39;76.54;96653.28;5013831;28;20206;-83
2021/11/18 01:06:59;;;;;;;6.40;5.80;;;;;;;7.37;76.96;96662.03;5014065;28;20276;-84
2021/11/18 01:09:26;;;;;;;6.83;6.13;;;;;;;7.34;76.36;96663.09;5012098;28;20262;-82
2021/11/18 01:11:53;;;;;;;5.97;5.47;;;;;;;7.35;76.87;96651.09;5014484;28;20699;-83
2021/11/18 01:14:22;;;;;;;6.20;5.60;;;;;;;7.34;76.37;96650.28;5012711;28;20202;-84
2021/11/18 01:16:49;;;;;;;6.10;5.50;;;;;;;7.34;76.51;96647.72;5013544;28;20215;-84
2021/11/18 01:19:16;;;;;;;5.63;5.13;;;;;;;7.33;76.36;96645.28;5014003;28;20599;-84
2021/11/18 01:21:45;;;;;;;6.27;5.67;;;;;;;7.30;76.53;96645.56;5013029;28;20238;-84
2021/11/18 01:24:12;;;;;;;5.67;5.17;;;;;;;7.33;76.70;96642.72;5013768;28;20253;-84
2021/11/18 01:26:38;;;;;;;6.23;5.63;;;;;;;7.26;76.67;96642.44;5014818;28;20226;-84
2021/11/18 01:29:05;;;;;;;6.33;5.73;;;;;;;7.29;76.79;96644.75;5014037;28;20199;-84
2021/11/18 01:31:33;;;;;;;6.03;5.43;;;;;;;7.28;77.06;96645.69;5016916;28;20277;-84
2021/11/18 01:34:00;;;;;;;6.17;5.57;;;;;;;7.31;76.95;96642.88;5018709;28;20199;-84
2021/11/18 01:36:28;;;;;;;6.43;5.83;;;;;;;7.30;76.95;96648.94;5017885;28;20510;-84
2021/11/18 01:38:54;;;;;;;5.90;5.40;;;;;;;7.35;77.28;96651.09;5016537;28;20202;-84
2021/11/18 01:41:24;;;;;;;6.10;5.60;;;;;;;7.34;77.37;96645.16;5017212;28;20199;-84
2021/11/18 01:43:53;;;;;;;6.57;5.87;;;;;;;7.31;77.27;96660.00;5017087;28;20230;-83
2021/11/18 01:46:22;;;;;;;6.27;5.67;;;;;;;7.35;77.21;96653.66;5017335;28;20222;-84
2021/11/18 01:48:52;;;;;;;6.20;5.60;;;;;;;7.33;77.20;96660.66;5016094;28;20202;-84
2021/11/18 01:51:22;;;;;;;5.80;5.20;;;;;;;7.34;77.58;96659.72;5016954;28;20194;-83
2021/11/18 01:53:49;;;;;;;6.77;5.90;;;;;;;7.36;77.64;96663.78;5016081;28;20618;-84
2021/11/18 01:56:18;;;;;;;5.87;5.27;;;;;;;7.39;77.32;96663.50;5016028;28;20226;-84
2021/11/18 01:58:49;;;;;;;6.23;5.63;;;;;;;7.40;77.17;96657.44;5015535;28;20230;-84
2021/11/18 02:01:15;;;;;;;5.73;5.13;;;;;;;7.40;77.38;96652.31;5015724;28;20609;-84
2021/11/18 02:03:42;;;;;;;6.37;5.50;;;;;;;7.30;77.65;96648.13;5016790;28;20202;-83
2021/11/18 02:06:15;;;;;;;6.47;5.83;;;;;;;7.28;77.56;96655.94;5014198;28;20241;-84
2021/11/18 02:08:42;;;;;;;6.43;5.83;;;;;;;7.26;77.53;96652.69;5015676;28;20199;-84
2021/11/18 02:11:22;;;;;;;6.67;6.00;;;;;;;7.27;77.91;96656.88;5015732;28;20199;-84
2021/11/18 02:13:48;;;;;;;6.37;5.77;;;;;;;7.30;77.66;96656.63;5015578;28;20198;-84
2021/11/18 02:16:15;;;;;;;6.30;5.70;;;;;;;7.31;77.70;96654.88;5014834;28;20210;-84
2021/11/18 02:18:41;;;;;;;6.33;5.73;;;;;;;7.33;77.56;96646.09;5015611;28;20586;-84
2021/11/18 02:21:11;;;;;;;6.47;5.87;;;;;;;7.36;77.70;96656.09;5014409;28;20203;-84
2021/11/18 02:23:43;;;;;;;5.80;5.30;;;;;;;7.36;77.63;96650.16;5014779;28;20191;-84
2021/11/18 02:26:10;;;;;;;6.47;5.87;;;;;;;7.35;77.64;96636.53;5014998;28;20226;-84
2021/11/18 02:28:40;;;;;;;6.80;6.20;;;;;;;7.31;77.75;96636.94;5015200;28;20206;-84
2021/11/18 02:31:16;;;;;;;6.70;6.00;;;;;;;7.30;77.52;96630.19;5016056;28;20195;-84
2021/11/18 02:33:43;;;;;;;6.37;5.63;;;;;;;7.26;77.70;96630.44;5014557;28;20815;-84
2021/11/18 02:36:11;;;;;;;7.03;6.33;;;;;;;7.30;77.81;96627.63;5014655;28;20222;-84
2021/11/18 02:38:37;;;;;;;7.10;6.20;;;;;;;7.34;77.46;96646.91;5014731;28;20204;-83
2021/11/18 02:41:06;;;;;;;7.17;6.10;;;;;;;7.36;77.63;96647.59;5014729;28;21470;-84
2021/11/18 02:43:32;;;;;;;6.30;5.70;;;;;;;7.37;77.58;96646.66;5015096;28;20194;-84
2021/11/18 02:45:59;;;;;;;6.77;6.10;;;;;;;7.38;77.50;96643.16;5015127;28;20265;-84
2021/11/18 02:48:25;;;;;;;6.90;6.20;;;;;;;7.38;77.69;96645.72;5015272;28;20202;-84
2021/11/18 02:50:56;;;;;;;6.40;5.80;;;;;;;7.33;77.91;96655.53;5014534;28;20207;-84
2021/11/18 02:53:26;;;;;;;6.93;6.30;;;;;;;7.34;77.95;96652.03;5014573;28;20637;-84
2021/11/18 02:55:53;;;;;;;7.30;6.60;;;;;;;7.28;78.00;96643.13;5014477;28;20215;-84
2021/11/18 02:58:21;;;;;;;6.70;6.10;;;;;;;7.30;78.08;96640.44;5016143;28;20191;-84
2021/11/18 03:00:51;;;;;;;6.80;6.10;;;;;;;7.30;78.03;96648.13;5016130;28;20194;-84
2021/11/18 03:03:18;;;;;;;7.70;7.00;;;;;;;7.32;77.84;96647.03;5015637;28;20555;-84
2021/11/18 03:05:45;;;;;;;6.97;6.30;;;;;;;7.30;77.85;96646.38;5014043;28;20670;-84
2021/11/18 03:08:12;;;;;;;7.43;6.53;;;;;;;7.27;77.84;96659.44;5014265;28;20685;-84
2021/11/18 03:10:40;;;;;;;6.77;6.07;;;;;;;7.23;78.08;96652.94;5014782;28;20298;-83
2021/11/18 03:13:07;;;;;;;7.33;6.63;;;;;;;7.22;78.08;96659.00;5014511;28;20237;-83
2021/11/18 03:15:33;;;;;;;7.63;6.93;;;;;;;7.22;78.56;96659.00;5003895;28;20219;-83
2021/11/18 03:18:00;;;;;;;7.43;6.73;;;;;;;7.24;78.17;96663.06;5014448;28;20203;-84
2021/11/18 03:20:28;;;;;;;7.40;6.70;;;;;;;7.23;78.39;96664.00;5014291;28;20666;-84
2021/11/18 03:22:57;;;;;;;6.60;5.90;;;;;;;7.18;78.66;96665.31;5014128;28;20222;-84
2021/11/18 03:25:26;;;;;;;7.43;6.43;;;;;;;7.22;78.70;96664.13;5014104;28;20246;-83
2021/11/18 03:27:54;;;;;;;6.93;6.30;;;;;;;7.25;78.51;96679.25;5014977;28;20202;-84
2021/11/18 03:30:25;;;;;;;7.00;6.30;;;;;;;7.32;78.23;96694.91;5013532;28;20199;-84
2021/11/18 03:32:52;;;;;;;6.70;5.77;;;;;;;7.32;77.90;96676.97;5013941;28;20237;-84
2021/11/18 03:35:20;;;;;;;7.13;6.43;;;;;;;7.34;78.16;96687.88;5014152;28;20245;-84
2021/11/18 03:37:46;;;;;;;6.70;6.03;;;;;;;7.34;77.75;96693.00;5013363;28;20199;-84
2021/11/18 03:40:14;;;;;;;7.53;6.80;;;;;;;7.36;77.98;96691.94;5014247;28;20202;-84
2021/11/18 03:42:41;;;;;;;7.13;6.43;;;;;;;7.39;77.97;96688.31;5014012;28;20217;-84
2021/11/18 03:45:10;;;;;;;7.37;6.20;;;;;;;7.40;77.95;96695.88;5012722;28;20236;-84
2021/11/18 03:47:40;;;;;;;7.13;6.43;;;;;;;7.40;78.09;96697.63;5013794;28;20199;-84
2021/11/18 03:50:08;;;;;;;6.50;6.00;;;;;;;7.40;77.90;96695.88;5013656;28;20565;-84
2021/11/18 03:52:34;;;;;;;7.20;6.50;;;;;;;7.42;77.67;96698.31;5013774;28;20240;-84
2021/11/18 03:55:01;;;;;;;6.80;6.10;;;;;;;7.41;77.80;96699.25;5013127;28;20195;-84
2021/11/18 03:57:28;;;;;;;9.07;6.40;;;;;;;7.43;78.07;96708.44;5029541;23;20531;-82
2021/11/18 03:59:54;;;;;;;7.07;6.37;;;;;;;7.42;77.86;96706.81;5011289;28;20199;-82
2021/11/18 04:02:22;;;;;;;7.30;6.60;;;;;;;7.42;77.86;96706.81;5014164;28;20196;-82
2021/11/18 04:04:51;;;;;;;6.90;6.23;;;;;;;7.38;78.08;96700.31;5001988;28;20573;-81
2021/11/18 04:07:18;;;;;;;6.90;6.20;;;;;;;7.34;78.06;96706.63;5012038;28;20202;-82
2021/11/18 04:09:45;;;;;;;8.30;6.50;;;;;;;7.32;78.18;96705.94;5033712;28;20800;-81
2021/11/18 04:12:14;;;;;;;6.97;6.27;;;;;;;7.34;78.23;96693.00;5033092;28;20593;-81
2021/11/18 04:14:41;;;;;;;8.60;6.43;;;;;;;7.35;78.03;96699.75;5033967;28;20202;-80
2021/11/18 04:17:10;;;;;;;7.00;6.30;;;;;;;7.34;78.24;96696.38;5036479;28;20194;-82
2021/11/18 04:19:39;;;;;;;7.47;6.77;;;;;;;7.37;77.99;96692.75;5037037;28;20195;-82
2021/11/18 04:22:06;;;;;;;8.00;6.70;;;;;;;7.37;77.79;96691.00;5034867;28;20218;-80
2021/11/18 04:24:34;;;;;;;7.43;6.67;;;;;;;7.38;77.97;96702.88;5036229;28;20293;-79
2021/11/18 04:27:02;;;;;;;7.30;6.60;;;;;;;7.40;77.68;96698.44;5036047;28;20206;-82
2021/11/18 04:29:29;;;;;;;6.77;6.17;;;;;;;7.43;78.07;96702.50;5034783;28;20202;-82
2021/11/18 04:31:56;;;;;;;7.43;6.70;;;;;;;7.43;78.04;96700.75;5031953;28;20198;-81
2021/11/18 04:34:23;;;;;;;7.33;6.40;;;;;;;7.42;78.20;96704.25;5031376;28;20202;-82
2021/11/18 04:36:51;;;;;;;7.87;7.07;;;;;;;7.41;78.25;96707.75;5033334;28;20260;-81
2021/11/18 04:39:18;;;;;;;7.50;6.80;;;;;;;7.41;78.47;96710.31;5033528;28;20600;-79
2021/11/18 04:41:45;;;;;;;7.70;7.00;;;;;;;7.40;78.81;96711.25;5033466;28;20194;-82
2021/11/18 04:44:12;;;;;;;7.70;7.00;;;;;;;7.41;78.37;96719.75;5030485;28;20199;-82
2021/11/18 04:46:39;;;;;;;8.17;7.20;;;;;;;7.39;78.74;96719.88;5014827;28;20202;-81
2021/11/18 04:49:07;;;;;;;7.77;6.97;;;;;;;7.36;78.66;96727.00;5022857;28;20212;-79
2021/11/18 04:51:35;;;;;;;9.67;7.73;;;;;;;7.37;78.73;96720.94;5032162;28;20217;-81
2021/11/18 04:54:04;;;;;;;8.50;7.63;;;;;;;7.38;78.44;96730.25;5022563;28;20211;-80
2021/11/18 04:56:31;;;;;;;7.67;6.87;;;;;;;7.40;78.30;96718.13;5029326;28;20195;-80
2021/11/18 04:58:58;;;;;;;7.83;7.03;;;;;;;7.40;78.48;96718.13;5029839;28;20708;-82
2021/11/18 05:01:26;;;;;;;7.80;7.10;;;;;;;7.40;78.54;96718.94;5031557;28;20206;-81
2021/11/18 05:03:53;;;;;;;7.77;6.90;;;;;;;7.37;78.74;96726.06;5030758;28;20204;-80
2021/11/18 05:06:21;;;;;;;7.43;6.73;;;;;;;7.35;78.83;96738.19;5033849;28;20198;-81
2021/11/18 05:08:48;;;;;;;7.67;6.97;;;;;;;7.34;79.05;96745.06;5034237;28;20213;-79
2021/11/18 05:11:16;;;;;;;7.63;6.93;;;;;;;7.37;79.00;96746.56;5035783;28;20624;-79
2021/11/18 05:13:42;;;;;;;7.83;7.00;;;;;;;7.30;80.09;96753.16;5034492;28;20268;-81
2021/11/18 05:16:12;;;;;;;7.40;6.70;;;;;;;7.29;80.00;96742.09;5034945;28;20205;-80
2021/11/18 05:18:39;;;;;;;7.40;6.70;;;;;;;7.27;79.42;96739.66;5035351;28;20228;-82
2021/11/18 05:21:07;;;;;;;7.60;6.90;;;;;;;7.29;79.52;96736.97;5035831;28;20194;-81
2021/11/18 05:23:36;;;;;;;7.90;7.10;;;;;;;7.29;79.45;96742.09;5035567;28;20273;-81
2021/11/18 05:26:08;;;;;;;7.67;6.70;;;;;;;7.22;79.88;96748.66;5033741;28;20202;-80
2021/11/18 05:28:35;;;;;;;7.73;6.93;;;;;;;7.20;80.04;96751.34;5035883;28;20228;-80
2021/11/18 05:31:02;;;;;;;7.70;6.90;;;;;;;7.10;80.26;96759.91;5035938;28;20198;-81
2021/11/18 05:33:29;;;;;;;8.57;6.83;;;;;;;7.14;80.21;96753.59;5034891;28;20218;-81
2021/11/18 05:35:56;;;;;;;8.40;7.60;;;;;;;7.17;79.88;96750.78;5036245;28;20256;-81
2021/11/18 05:38:24;;;;;;;8.63;7.47;;;;;;;7.16;79.69;96756.84;5034449;28;20221;-82
2021/11/18 05:40:51;;;;;;;7.93;7.20;;;;;;;7.18;79.92;96771.16;5019901;28;20210;-81
2021/11/18 05:43:18;;;;;;;8.50;7.63;;;;;;;7.23;79.51;96769.03;5022736;28;20291;-79
2021/11/18 05:45:46;;;;;;;7.70;7.00;;;;;;;7.27;79.71;96782.41;5027737;28;20248;-82
2021/11/18 05:48:15;;;;;;;8.27;7.47;;;;;;;7.29;79.45;96777.97;5017072;28;20215;-82
2021/11/18 05:50:46;;;;;;;8.37;7.57;;;;;;;7.31;79.28;96770.97;5024394;28;20193;-82
2021/11/18 05:53:13;;;;;;;8.47;7.67;;;;;;;7.27;79.47;96764.47;5029917;28;20215;-82
2021/11/18 05:55:39;;;;;;;7.70;7.00;;;;;;;7.21;79.61;96755.53;5015559;28;20199;-81
2021/11/18 05:58:06;;;;;;;8.30;7.50;;;;;;;7.15;80.24;96760.34;5021957;28;20231;-82
2021/11/18 06:00:34;;;;;;;7.47;6.77;;;;;;;7.05;80.20;96762.84;5026418;28;20198;-81
2021/11/18 06:03:01;;;;;;;8.67;7.87;;;;;;;7.05;80.04;96775.66;5026610;28;20206;-81
2021/11/18 06:05:30;;;;;;;8.03;7.07;;;;;;;7.12;80.21;96787.00;5023261;28;20248;-82
2021/11/18 06:07:57;;;;;;;7.87;7.07;;;;;;;7.16;79.98;96790.94;5021682;28;20218;-82
2021/11/18 06:10:26;;;;;;;7.80;7.00;;;;;;;7.20;79.58;96794.88;5019156;28;20203;-82
2021/11/18 06:12:53;;;;;;;7.60;6.90;;;;;;;7.21;79.47;96791.38;5030729;28;20240;-82
2021/11/18 06:15:27;;;;;;;8.00;7.23;;;;;;;7.23;79.54;96796.38;5015661;28;20207;-81
2021/11/18 06:17:54;;;;;;;7.57;6.87;;;;;;;7.24;79.42;96805.69;5013300;28;20692;-82
2021/11/18 06:20:21;;;;;;;8.33;7.53;;;;;;;7.22;79.79;96799.88;5029521;28;20208;-81
2021/11/18 06:22:49;;;;;;;8.00;7.20;;;;;;;7.21;79.63;96803.38;5030815;28;20234;-82
2021/11/18 06:25:18;;;;;;;7.63;6.80;;;;;;;7.20;79.78;96807.69;5028630;28;20202;-81
2021/11/18 06:27:47;;;;;;;7.63;6.93;;;;;;;7.20;83.08;96810.25;5033819;28;20240;-81
2021/11/18 06:30:17;;;;;;;7.77;6.97;;;;;;;7.16;82.01;96815.75;5031831;28;20851;-82
2021/11/18 06:32:44;;;;;;;8.87;7.97;;;;;;;7.22;80.54;96817.81;5019330;28;20203;-81
2021/11/18 06:35:11;;;;;;;21.23;17.63;;;;;;;7.24;80.73;96815.94;5026107;28;20210;-82
2021/11/18 06:37:38;;;;;;;10.57;9.47;;;;;;;7.25;80.22;96830.38;5015832;28;20238;-81
2021/11/18 06:40:07;;;;;;;9.13;8.23;;;;;;;7.29;80.17;96834.31;5021304;28;20214;-81
2021/11/18 06:42:33;;;;;;;9.17;7.13;;;;;;;7.25;79.81;96843.19;5033074;28;20220;-81
2021/11/18 06:45:00;;;;;;;7.43;6.73;;;;;;;7.23;80.09;96833.06;5032836;28;20264;-81
2021/11/18 06:47:26;;;;;;;8.63;7.10;;;;;;;7.24;79.73;96836.44;5023187;28;20575;-82
2021/11/18 06:49:54;;;;;;;8.20;7.40;;;;;;;7.22;79.77;96831.44;5033467;28;20205;-80
2021/11/18 06:52:24;;;;;;;10.40;7.50;;;;;;;7.22;79.98;96844.25;5032524;28;20288;-79
2021/11/18 06:54:52;;;;;;;9.13;7.10;;;;;;;7.27;79.70;96846.44;5033583;28;20218;-80
2021/11/18 06:57:19;;;;;;;7.37;6.67;;;;;;;7.25;79.97;96853.44;5032553;28;20708;-80
2021/11/18 06:59:45;;;;;;;7.80;7.07;;;;;;;7.27;80.37;96854.13;5032867;28;20205;-79
2021/11/18 07:02:12;;;;;;;7.63;6.93;;;;;;;7.22;80.08;96846.00;5016490;28;20194;-80
2021/11/18 07:04:38;;;;;;;8.30;7.47;;;;;;;7.13;80.63;96851.84;5032370;28;20190;-79
2021/11/18 07:07:05;;;;;;;8.00;7.20;;;;;;;7.08;80.60;96862.47;5031581;28;20206;-78
2021/11/18 07:09:33;;;;;;;8.20;7.40;;;;;;;7.00;81.12;96859.72;5033063;28;20194;-79
2021/11/18 07:12:01;;;;;;;8.50;7.60;;;;;;;6.97;81.57;96857.38;5033750;28;20210;-80
2021/11/18 07:14:27;;;;;;;8.33;7.50;;;;;;;6.93;81.34;96850.88;5032033;28;20221;-80
2021/11/18 07:16:54;;;;;;;10.77;9.57;;;;;;;7.01;82.68;96860.53;5033411;28;20577;-79
2021/11/18 07:19:21;;;;;;;8.30;5.57;;;;;;;7.60;99.61;96850.53;5031704;28;20226;-80
2021/11/18 07:21:48;;;;;;;7.47;5.20;;;;;;;8.12;92.71;96848.72;5031802;28;20222;-79
2021/11/18 07:24:16;;;;;;;6.80;6.10;;;;;;;8.41;85.80;96847.09;5032007;28;20201;-77
2021/11/18 07:26:43;;;;;;;7.67;6.87;;;;;;;8.46;76.45;96851.84;5032686;28;20415;-80
2021/11/18 07:29:11;;;;;;;7.47;6.67;;;;;;;8.16;75.63;96856.03;5031778;28;20225;-79
2021/11/18 07:31:38;;;;;;;8.77;6.93;;;;;;;8.05;76.89;96865.59;5032130;28;20202;-80
2021/11/18 07:34:06;;;;;;;7.80;6.97;;;;;;;7.89;76.99;96873.75;5032216;28;20703;-80
2021/11/18 07:36:33;;;;;;;8.13;7.33;;;;;;;7.80;77.18;96869.41;5030797;28;20205;-83
2021/11/18 07:38:59;;;;;;;7.67;6.97;;;;;;;7.62;77.19;96874.28;5032561;28;20233;-83
2021/11/18 07:41:28;;;;;;;7.90;7.10;;;;;;;7.57;78.00;96879.78;5032467;28;20202;-80
2021/11/18 07:43:55;;;;;;;8.00;7.20;;;;;;;7.59;78.40;96885.59;5031248;28;20194;-80
2021/11/18 07:46:23;;;;;;;8.80;7.77;;;;;;;7.61;78.44;96888.84;5031918;28;20250;-80
2021/11/18 07:48:50;;;;;;;10.23;7.47;;;;;;;7.62;78.38;96890.50;5032626;28;20305;-80
2021/11/18 07:51:19;;;;;;;9.47;7.17;;;;;;;7.67;78.42;96895.25;5033215;28;20202;-78
2021/11/18 07:53:46;;;;;;;7.97;7.17;;;;;;;7.56;78.43;96890.97;5030599;28;20740;-78
2021/11/18 07:56:14;;;;;;;8.10;7.07;;;;;;;7.58;78.60;96889.09;5032060;28;20197;-79
2021/11/18 07:58:40;;;;;;;8.77;7.07;;;;;;;7.53;78.62;96883.53;5032009;28;20234;-79
2021/11/18 08:01:08;;;;;;;8.30;6.93;;;;;;;7.45;78.56;96887.69;5032043;28;20198;-78
2021/11/18 08:03:37;;;;;;;9.87;7.30;;;;;;;7.41;78.37;96886.31;5026960;28;21028;-79
2021/11/18 08:06:06;;;;;;;8.47;6.83;;;;;;;7.36;78.36;96891.78;5018452;28;20205;-79
2021/11/18 08:08:33;;;;;;;7.63;6.87;;;;;;;7.43;78.49;96884.44;5028186;28;20222;-79
2021/11/18 08:10:59;;;;;;;8.60;7.17;;;;;;;7.43;78.57;96884.44;5032256;28;20202;-78
2021/11/18 08:13:26;;;;;;;9.10;7.17;;;;;;;7.41;77.90;96892.25;5030631;28;20226;-80
2021/11/18 08:15:52;;;;;;;7.93;7.13;;;;;;;7.50;78.33;96890.69;5031927;28;20217;-80
2021/11/18 08:18:20;;;;;;;8.50;6.80;;;;;;;7.47;77.86;96890.94;5031756;28;20218;-78
2021/11/18 08:20:47;;;;;;;7.70;6.80;;;;;;;7.45;77.82;96888.50;5031656;28;20256;-80
2021/11/18 08:23:14;;;;;;;7.40;6.60;;;;;;;7.41;77.74;96884.56;5029180;28;20232;-79
2021/11/18 08:25:41;;;;;;;8.60;6.53;;;;;;;7.44;77.69;96886.06;5031108;28;20785;-80
2021/11/18 08:28:08;;;;;;;7.10;6.40;;;;;;;7.37;77.99;96890.03;5031595;28;20221;-77
2021/11/18 08:30:36;;;;;;;7.77;6.97;;;;;;;7.41;78.34;96892.25;5031032;28;20240;-80
2021/11/18 08:33:06;;;;;;;7.23;6.20;;;;;;;7.46;78.09;96899.56;5031696;28;20206;-78
2021/11/18 08:35:35;;;;;;;7.20;6.30;;;;;;;7.48;77.87;96888.25;5030911;28;20222;-80
2021/11/18 08:38:05;;;;;;;8.37;6.37;;;;;;;7.43;77.51;96889.56;5023286;28;20214;-80
2021/11/18 08:40:32;;;;;;;7.73;6.63;;;;;;;7.39;77.98;96893.28;5030837;28;20198;-78
2021/11/18 08:42:58;;;;;;;8.30;7.00;;;;;;;7.37;77.83;96900.28;5030979;28;20198;-80
2021/11/18 08:45:25;;;;;;;6.63;5.97;;;;;;;7.37;77.68;96900.28;5030570;28;20191;-78
2021/11/18 08:47:52;;;;;;;7.30;6.60;;;;;;;7.36;77.77;96896.09;5031534;28;20226;-80
2021/11/18 08:50:21;;;;;;;6.97;6.27;;;;;;;7.46;77.63;96899.56;5035627;28;20202;-77
2021/11/18 08:52:48;;;;;;;6.90;6.20;;;;;;;7.48;77.45;96895.94;5043826;28;20292;-77
2021/11/18 08:55:19;;;;;;;6.60;5.90;;;;;;;7.52;77.23;96896.47;5043642;28;20213;-78
2021/11/18 08:57:47;;;;;;;7.70;6.93;;;;;;;7.52;77.31;96894.72;5027217;28;20226;-78
2021/11/18 09:00:17;;;;;;;6.93;6.23;;;;;;;7.47;77.04;96898.63;5042274;28;20206;-77
2021/11/18 09:02:43;;;;;;;7.03;6.33;;;;;;;7.52;77.03;96911.84;5043230;28;20199;-78
2021/11/18 09:05:10;;;;;;;6.83;6.23;;;;;;;7.56;76.78;96900.41;5039561;28;20198;-77
2021/11/18 09:07:36;;;;;;;7.60;6.33;;;;;;;7.54;76.52;96899.72;5043044;28;20210;-77
2021/11/18 09:10:04;;;;;;;6.97;6.27;;;;;;;7.46;76.52;96904.69;5043540;28;20194;-77
2021/11/18 09:12:31;;;;;;;7.73;6.50;;;;;;;7.51;77.11;96907.66;5043457;28;20194;-77
2021/11/18 09:14:58;;;;;;;7.57;6.20;;;;;;;7.58;76.81;96909.63;5042778;28;20214;-77
2021/11/18 09:17:26;;;;;;;7.23;6.37;;;;;;;7.59;76.74;96905.31;5043649;28;20209;-77
2021/11/18 09:19:52;;;;;;;7.20;6.50;;;;;;;7.65;76.89;96916.81;5042350;28;20199;-77
2021/11/18 09:22:19;;;;;;;6.77;6.10;;;;;;;7.63;76.60;96916.94;5041833;28;20226;-77
2021/11/18 09:24:48;;;;;;;7.00;6.30;;;;;;;7.66;76.51;96921.00;5042306;28;20201;-77
2021/11/18 09:27:18;;;;;;;7.00;6.20;;;;;;;7.68;76.83;96919.94;5042785;28;20210;-77
2021/11/18 09:29:47;;;;;;;6.87;6.17;;;;;;;7.83;76.56;96923.81;5036622;28;20705;-78
2021/11/18 09:32:14;;;;;;;9.80;6.87;;;;;;;7.93;75.99;96926.41;5030928;28;20233;-79
2021/11/18 09:34:44;;;;;;;7.80;6.97;;;;;;;8.01;75.94;96930.91;5033401;28;20217;-80
2021/11/18 09:37:14;;;;;;;7.43;6.63;;;;;;;7.96;75.97;96923.59;5023716;28;20685;-79
2021/11/18 09:39:41;;;;;;;8.80;6.43;;;;;;;7.84;76.29;96922.88;5031482;28;20207;-78
2021/11/18 09:42:10;;;;;;;7.00;6.30;;;;;;;7.91;76.30;96931.66;5030805;28;20194;-79
2021/11/18 09:45:15;;;;;;;6.63;6.03;;;;;;;7.97;76.05;96922.66;5029734;28;20194;-79
2021/11/18 09:48:26;;;;;;;6.77;6.17;;;;;;;8.01;75.71;96929.16;5031193;28;20214;-79
2021/11/18 09:51:17;;;;;;;8.73;6.50;;;;;;;8.02;75.38;96940.22;5030626;28;20195;-79
2021/11/18 09:53:58;;;;;;;6.73;6.10;;;;;;;8.06;75.47;96942.44;5033495;28;20213;-80
2021/11/18 09:56:33;;;;;;;6.67;5.97;;;;;;;8.13;75.14;96935.81;5034017;28;20209;-79
2021/11/18 09:59:26;;;;;;;6.97;6.30;;;;;;;8.08;74.78;96944.88;5034164;28;20225;-81
2021/11/18 10:02:37;;;;;;;6.70;6.00;;;;;;;8.00;75.21;96936.97;5015754;28;20218;-79
2021/11/18 10:05:08;;;;;;;6.43;5.83;;;;;;;8.06;75.40;96927.03;5034048;28;20194;-79
2021/11/18 10:07:41;;;;;;;7.13;6.43;;;;;;;8.03;75.18;96929.03;5034227;28;20246;-79
2021/11/18 10:10:17;;;;;;;7.00;6.30;;;;;;;8.13;75.34;96930.69;5034096;28;20221;-79
2021/11/18 10:13:02;;;;;;;7.43;6.73;;;;;;;8.21;75.05;96927.50;5034188;28;20221;-80
2021/11/18 10:15:31;;;;;;;10.50;6.30;;;;;;;8.23;75.08;96938.44;5034189;28;20209;-78
2021/11/18 10:18:03;;;;;;;6.73;6.03;;;;;;;8.31;74.86;96933.47;5034658;28;20697;-81
2021/11/18 10:20:33;;;;;;;7.17;5.80;;;;;;;8.38;75.09;96926.09;5033990;28;20202;-78
2021/11/18 10:23:03;;;;;;;7.70;6.50;;;;;;;8.28;74.77;96923.47;5032611;28;20314;-80
2021/11/18 10:25:33;;;;;;;9.93;6.90;;;;;;;8.39;74.52;96922.59;5034372;28;20203;-80
2021/11/18 10:28:21;;;;;;;8.43;6.30;;;;;;;8.53;74.34;96910.22;5019859;28;20218;-80
2021/11/18 10:30:54;;;;;;;7.73;6.30;;;;;;;8.72;73.94;96912.00;5024693;28;20933;-79
2021/11/18 10:33:26;;;;;;;6.73;5.90;;;;;;;8.81;72.28;96911.22;5018701;28;20261;-80
2021/11/18 10:36:06;;;;;;;6.23;5.10;;;;;;;8.91;71.56;96899.19;5030083;28;20215;-80
2021/11/18 10:38:39;;;;;;;6.60;5.63;;;;;;;9.03;71.40;96899.91;5026475;28;20265;-80
2021/11/18 10:41:20;;;;;;;6.50;5.70;;;;;;;9.18;71.22;96902.88;5024868;28;20280;-80
2021/11/18 10:44:07;;;;;;;7.43;5.90;;;;;;;9.47;70.68;96898.53;5026764;28;20202;-79
2021/11/18 10:46:37;;;;;;;7.37;6.63;;;;;;;9.60;69.82;96891.34;5034137;28;20193;-80
2021/11/18 10:49:09;;;;;;;5.40;4.90;;;;;;;9.76;68.66;96893.34;5034509;23;20590;-82
2021/11/18 10:51:41;;;;;;;5.30;4.80;;;;;;;9.92;68.38;96897.91;5013146;28;20207;-84
2021/11/18 10:54:10;;;;;;;5.43;4.97;;;;;;;10.06;67.59;96902.59;5013189;28;20199;-84
2021/11/18 10:56:48;;;;;;;5.20;4.70;;;;;;;10.12;66.97;96898.66;5012742;28;20207;-84
2021/11/18 10:59:17;;;;;;;7.00;4.90;;;;;;;10.27;67.62;96902.41;5012960;28;20218;-83
2021/11/18 11:01:46;;;;;;;5.13;4.63;;;;;;;10.34;66.62;96908.63;5013722;28;20209;-85
2021/11/18 11:04:35;;;;;;;5.27;4.70;;;;;;;10.42;66.09;96908.69;5012333;28;20199;-85
2021/11/18 11:07:01;;;;;;;4.80;4.40;;;;;;;10.46;65.45;96904.91;5013467;28;20207;-82
2021/11/18 11:09:32;;;;;;;5.47;4.97;;;;;;;10.48;65.38;96900.41;5013302;28;20226;-83
2021/11/18 11:12:11;;;;;;;4.90;4.50;;;;;;;10.37;64.82;96896.28;5013775;28;20233;-84
2021/11/18 11:14:57;;;;;;;5.33;4.27;;;;;;;10.36;64.99;96883.53;5012509;28;20225;-83
2021/11/18 11:17:59;;;;;;;5.27;4.60;;;;;;;10.46;64.67;96883.47;5012769;28;20206;-81
2021/11/18 11:20:35;;;;;;;4.53;4.13;;;;;;;10.70;65.61;96897.44;5008611;28;20194;-82
2021/11/18 11:23:09;;;;;;;5.30;4.23;;;;;;;10.89;64.43;96883.63;5012962;28;20223;-85
2021/11/18 11:25:58;;;;;;;4.20;3.80;;;;;;;10.96;63.06;96881.28;5013274;28;20205;-82
2021/11/18 11:28:54;;;;;;;3.87;3.47;;;;;;;10.95;61.80;96871.94;5010254;28;20215;-83
2021/11/18 11:31:34;;;;;;;4.50;4.10;;;;;;;10.76;62.58;96869.50;5012646;28;20199;-82
2021/11/18 11:34:08;;;;;;;5.03;3.23;;;;;;;10.65;62.68;96873.88;4993971;28;20701;-81
2021/11/18 11:36:41;;;;;;;3.20;2.93;;;;;;;10.58;62.83;96869.47;5010562;28;20930;-82
2021/11/18 11:39:16;;;;;;;2.60;2.40;;;;;;;10.61;62.28;96864.00;5012718;28;20234;-82
2021/11/18 11:42:12;;;;;;;3.73;2.33;;;;;;;10.69;62.56;96859.75;5007813;28;20199;-82
2021/11/18 11:44:49;;;;;;;4.87;4.23;;;;;;;10.63;62.52;96862.09;5001378;28;20205;-85
2021/11/18 11:47:33;;;;;;;20.03;16.43;;;;;;;10.71;63.33;96850.13;5008320;28;20199;-85
2021/11/18 11:50:08;;;;;;;8.40;5.37;;;;;;;10.84;63.47;96844.59;5013319;28;20205;-84
2021/11/18 11:52:54;;;;;;;3.90;3.50;;;;;;;11.02;62.99;96842.03;5013785;28;20202;-81